createdAt,value
2023-07-21T00:00:32.743Z,1005.19
2023-07-21T00:03:42.112Z,1005.18
2023-07-21T00:06:44.958Z,1005.12
2023-07-21T00:09:52.745Z,1005.14
2023-07-21T00:13:00.395Z,1005.13
2023-07-21T00:16:09.144Z,1005.11
2023-07-21T00:19:16.314Z,1005.03
2023-07-21T00:22:24.456Z,1005.01
2023-07-21T00:25:33.071Z,1004.95
2023-07-21T00:28:40.815Z,1004.88
2023-07-21T00:31:47.913Z,1004.90
2023-07-21T00:34:56.985Z,1004.83
2023-07-21T00:38:04.495Z,1004.81
2023-07-21T00:41:11.656Z,1004.81
2023-07-21T00:44:19.226Z,1004.75
2023-07-21T00:47:28.705Z,1004.72
2023-07-21T00:50:35.771Z,1004.73
2023-07-21T00:53:42.934Z,1004.71
2023-07-21T00:56:51.362Z,1004.67
2023-07-21T00:59:58.855Z,1004.65
2023-07-21T01:03:05.496Z,1004.59
2023-07-21T01:06:14.620Z,1004.56
2023-07-21T01:09:22.179Z,1004.56
2023-07-21T01:12:29.922Z,1004.52
2023-07-21T01:15:38.307Z,1004.49
2023-07-21T01:18:45.534Z,1004.45
2023-07-21T01:21:53.014Z,1004.51
2023-07-21T01:25:00.145Z,1004.43
2023-07-21T01:28:08.783Z,1004.51
2023-07-21T01:31:16.292Z,1004.45
2023-07-21T01:34:23.352Z,1004.43
2023-07-21T01:37:32.276Z,1004.42
2023-07-21T01:40:40.043Z,1004.39
2023-07-21T01:43:47.205Z,1004.32
2023-07-21T01:46:55.896Z,1004.29
2023-07-21T01:50:03.060Z,1004.33
2023-07-21T01:53:10.487Z,1004.21
2023-07-21T01:56:18.576Z,1004.24
2023-07-21T01:59:27.195Z,1004.30
2023-07-21T02:02:34.627Z,1004.22
2023-07-21T02:05:41.989Z,1004.21
2023-07-21T02:08:50.907Z,1004.16
2023-07-21T02:11:58.424Z,1004.22
2023-07-21T02:15:06.040Z,1004.21
2023-07-21T02:18:14.924Z,1004.27
2023-07-21T02:21:21.634Z,1004.19
2023-07-21T02:24:29.235Z,1004.19
2023-07-21T02:27:38.247Z,1004.09
2023-07-21T02:30:45.036Z,1004.20
2023-07-21T02:33:53.144Z,1004.11
2023-07-21T02:37:00.294Z,1004.16
2023-07-21T02:40:08.881Z,1004.10
2023-07-21T02:43:16.625Z,1004.08
2023-07-21T02:46:24.772Z,1004.04
2023-07-21T02:49:33.505Z,1003.96
2023-07-21T02:52:40.851Z,1003.89
2023-07-21T02:55:48.289Z,1003.96
2023-07-21T02:58:57.104Z,1003.96
2023-07-21T03:02:04.274Z,1003.99
2023-07-21T03:05:11.411Z,1004.14
2023-07-21T03:08:20.439Z,1004.19
2023-07-21T03:11:27.667Z,1004.16
2023-07-21T03:14:35.644Z,1004.17
2023-07-21T03:17:42.323Z,1004.19
2023-07-21T03:20:51.233Z,1004.19
2023-07-21T03:23:58.278Z,1004.35
2023-07-21T03:27:05.737Z,1004.52
2023-07-21T03:30:14.613Z,1004.53
2023-07-21T03:33:21.356Z,1004.42
2023-07-21T03:36:29.041Z,1004.37
2023-07-21T03:39:37.496Z,1004.29
2023-07-21T03:42:44.711Z,1004.35
2023-07-21T03:45:51.962Z,1004.34
2023-07-21T03:48:59.436Z,1004.25
2023-07-21T03:52:08.375Z,1004.17
2023-07-21T03:55:15.645Z,1004.16
2023-07-21T03:58:23.052Z,1004.18
2023-07-21T04:01:31.904Z,1004.18
2023-07-21T04:04:39.020Z,1004.15
2023-07-21T04:07:46.950Z,1004.17
2023-07-21T04:10:56.246Z,1004.11
2023-07-21T04:14:03.005Z,1004.09
2023-07-21T04:17:11.003Z,1004.05
2023-07-21T04:20:19.705Z,1004.00
2023-07-21T04:23:27.727Z,1003.99
2023-07-21T04:26:34.824Z,1004.01
2023-07-21T04:29:41.914Z,1004.01
2023-07-21T04:32:50.688Z,1003.91
2023-07-21T04:35:58.716Z,1003.89
2023-07-21T04:39:05.356Z,1003.86
2023-07-21T04:42:15.555Z,1003.88
2023-07-21T04:45:22.801Z,1003.89
2023-07-21T04:48:29.944Z,1003.91
2023-07-21T04:51:38.727Z,1003.78
2023-07-21T04:54:46.308Z,1003.84
2023-07-21T04:57:53.274Z,1003.74
2023-07-21T05:01:02.328Z,1003.68
2023-07-21T05:04:10.222Z,1003.73
2023-07-21T05:07:17.037Z,1003.78
2023-07-21T05:10:25.557Z,1003.75
2023-07-21T05:13:34.677Z,1003.73
2023-07-21T05:16:41.931Z,1003.64
2023-07-21T05:19:48.998Z,1003.51
2023-07-21T05:22:58.701Z,1003.58
2023-07-21T05:26:05.887Z,1003.56
2023-07-21T05:29:12.876Z,1003.56
2023-07-21T05:32:21.784Z,1003.51
2023-07-21T05:35:28.905Z,1003.49
2023-07-21T05:38:36.790Z,1003.47
2023-07-21T05:41:45.028Z,1003.52
2023-07-21T05:44:52.707Z,1003.42
2023-07-21T05:47:59.850Z,1003.48
2023-07-21T05:51:07.432Z,1003.55
2023-07-21T05:54:16.621Z,1003.54
2023-07-21T05:57:23.456Z,1003.53
2023-07-21T06:00:31.880Z,1003.54
2023-07-21T06:03:40.298Z,1003.51
2023-07-21T06:06:47.979Z,1003.55
2023-07-21T06:09:55.321Z,1003.51
2023-07-21T06:13:03.988Z,1003.45
2023-07-21T06:16:11.488Z,1003.45
2023-07-21T06:19:18.791Z,1003.45
2023-07-21T06:22:26.890Z,1003.46
2023-07-21T06:25:35.457Z,1003.37
2023-07-21T06:28:42.947Z,1003.36
2023-07-21T06:31:49.608Z,1003.21
2023-07-21T06:34:58.555Z,1003.18
2023-07-21T06:38:06.102Z,1003.13
2023-07-21T06:41:12.756Z,1003.21
2023-07-21T06:44:22.389Z,1003.23
2023-07-21T06:47:29.580Z,1003.25
2023-07-21T06:50:37.027Z,1003.17
2023-07-21T06:53:46.193Z,1003.12
2023-07-21T06:56:53.875Z,1003.10
2023-07-21T07:00:01.622Z,1003.11
2023-07-21T07:03:08.434Z,1003.10
2023-07-21T07:06:17.914Z,1003.09
2023-07-21T07:09:24.566Z,1003.06
2023-07-21T07:12:32.575Z,1002.99
2023-07-21T07:15:41.839Z,1003.01
2023-07-21T07:18:48.701Z,1002.93
2023-07-21T07:21:56.692Z,1002.98
2023-07-21T07:25:05.516Z,1002.94
2023-07-21T07:28:12.585Z,1002.90
2023-07-21T07:31:20.006Z,1002.91
2023-07-21T07:34:28.213Z,1002.87
2023-07-21T07:37:36.494Z,1002.85
2023-07-21T07:40:45.184Z,1002.85
2023-07-21T07:43:52.587Z,1002.84
2023-07-21T07:47:01.111Z,1002.80
2023-07-21T07:50:08.280Z,1002.85
2023-07-21T07:53:15.348Z,1002.84
2023-07-21T07:56:23.910Z,1002.93
2023-07-21T07:59:31.729Z,1002.93
2023-07-21T08:02:39.336Z,1002.90
2023-07-21T08:05:47.449Z,1002.83
2023-07-21T08:08:56.049Z,1002.77
2023-07-21T08:12:03.526Z,1002.78
2023-07-21T08:15:10.804Z,1002.73
2023-07-21T08:18:19.916Z,1002.74
2023-07-21T08:21:27.801Z,1002.76
2023-07-21T08:24:34.740Z,1002.74
2023-07-21T08:27:44.416Z,1002.76
2023-07-21T08:30:58.746Z,1002.71
2023-07-21T08:33:56.090Z,1002.75
2023-07-21T08:37:04.669Z,1002.72
2023-07-21T08:40:12.263Z,1002.68
2023-07-21T08:43:19.456Z,1002.68
2023-07-21T08:46:27.901Z,1002.57
2023-07-21T08:49:37.430Z,1002.61
2023-07-21T08:52:44.188Z,1002.63
2023-07-21T08:55:51.858Z,1002.64
2023-07-21T08:59:00.688Z,1002.56
2023-07-21T09:02:07.592Z,1002.50
2023-07-21T09:05:14.602Z,1002.49
2023-07-21T09:08:24.010Z,1002.40
2023-07-21T09:11:31.076Z,1002.45
2023-07-21T09:14:38.104Z,1002.44
2023-07-21T09:17:47.081Z,1002.41
2023-07-21T09:20:53.864Z,1002.28
2023-07-21T09:24:01.174Z,1002.32
2023-07-21T09:27:09.180Z,1002.21
2023-07-21T09:30:17.727Z,1002.24
2023-07-21T09:33:25.760Z,1002.19
2023-07-21T09:36:33.337Z,1002.21
2023-07-21T09:39:42.529Z,1002.20
2023-07-21T09:42:50.129Z,1002.18
2023-07-21T09:45:57.300Z,1002.11
2023-07-21T09:49:05.584Z,1002.03
2023-07-21T09:52:13.723Z,1002.00
2023-07-21T09:55:21.251Z,1002.09
2023-07-21T09:58:30.831Z,1002.14
2023-07-21T10:01:38.090Z,1002.06
2023-07-21T10:04:45.846Z,1002.05
2023-07-21T10:07:53.544Z,1001.93
2023-07-21T10:11:02.227Z,1001.97
2023-07-21T10:14:09.565Z,1001.96
2023-07-21T10:17:16.491Z,1002.04
2023-07-21T10:20:25.508Z,1001.91
2023-07-21T10:23:32.687Z,1001.91
2023-07-21T10:26:39.572Z,1001.85
2023-07-21T10:29:48.768Z,1001.90
2023-07-21T10:32:56.200Z,1001.86
2023-07-21T10:36:03.567Z,1001.87
2023-07-21T10:39:12.407Z,1001.80
2023-07-21T10:42:19.686Z,1001.73
2023-07-21T10:45:27.038Z,1001.65
2023-07-21T10:48:34.111Z,1001.71
2023-07-21T10:51:42.880Z,1001.68
2023-07-21T10:54:51.121Z,1001.66
2023-07-21T10:57:58.342Z,1001.63
2023-07-21T11:01:06.970Z,1001.54
2023-07-21T11:04:14.668Z,1001.58
2023-07-21T11:07:22.093Z,1001.56
2023-07-21T11:10:30.832Z,1001.58
2023-07-21T11:13:38.556Z,1001.56
2023-07-21T11:16:46.275Z,1001.54
2023-07-21T11:19:53.630Z,1001.51
2023-07-21T11:23:03.516Z,1001.58
2023-07-21T11:26:11.830Z,1001.47
2023-07-21T11:29:18.574Z,1001.48
2023-07-21T11:32:27.909Z,1001.45
2023-07-21T11:35:35.616Z,1001.41
2023-07-21T11:38:43.063Z,1001.43
2023-07-21T11:41:51.938Z,1001.31
2023-07-21T11:44:59.156Z,1001.31
2023-07-21T11:48:06.590Z,1001.25
2023-07-21T11:51:16.094Z,1001.23
2023-07-21T11:54:23.476Z,1001.13
2023-07-21T11:57:31.585Z,1001.14
2023-07-21T12:00:39.025Z,1001.13
2023-07-21T12:03:48.011Z,1001.10
2023-07-21T12:06:55.706Z,1001.05
2023-07-21T12:10:03.685Z,1001.00
2023-07-21T12:13:12.571Z,1000.98
2023-07-21T12:16:19.902Z,1001.04
2023-07-21T12:19:27.003Z,1001.01
2023-07-21T12:22:36.238Z,1001.04
2023-07-21T12:25:43.511Z,1000.94
2023-07-21T12:28:51.543Z,1000.99
2023-07-21T12:32:01.328Z,1001.03
2023-07-21T12:35:10.026Z,1001.06
2023-07-21T12:38:17.971Z,1001.00
2023-07-21T12:41:25.969Z,1001.02
2023-07-21T12:44:35.024Z,1001.01
2023-07-21T12:47:42.520Z,1001.01
2023-07-21T12:50:49.904Z,1000.99
2023-07-21T12:53:58.996Z,1000.92
2023-07-21T12:57:06.484Z,1000.86
2023-07-21T13:00:14.532Z,1000.82
2023-07-21T13:03:23.667Z,1000.94
2023-07-21T13:06:34.264Z,1000.92
2023-07-21T13:09:33.622Z,1000.97
2023-07-21T13:12:42.573Z,1000.95
2023-07-21T13:15:49.958Z,1000.95
2023-07-21T13:18:57.243Z,1000.93
2023-07-21T13:22:04.940Z,1000.96
2023-07-21T13:25:13.701Z,1001.01
2023-07-21T13:28:21.383Z,1001.05
2023-07-21T13:31:29.051Z,1001.08
2023-07-21T13:34:37.460Z,1001.29
2023-07-21T13:37:45.951Z,1001.39
2023-07-21T13:40:53.822Z,1001.69
2023-07-21T13:44:03.500Z,1002.03
2023-07-21T13:47:10.907Z,1002.18
2023-07-21T13:50:18.485Z,1002.36
2023-07-21T13:53:26.983Z,1002.47
2023-07-21T13:56:34.520Z,1002.51
2023-07-21T13:59:42.476Z,1002.65
2023-07-21T14:02:50.036Z,1002.64
2023-07-21T14:05:59.234Z,1002.58
2023-07-21T14:09:06.912Z,1002.57
2023-07-21T14:12:14.129Z,1002.56
2023-07-21T14:15:23.211Z,1002.52
2023-07-21T14:18:30.965Z,1002.46
2023-07-21T14:21:38.275Z,1002.25
2023-07-21T14:24:47.642Z,1002.22
2023-07-21T14:27:54.924Z,1002.28
2023-07-21T14:31:02.179Z,1002.07
2023-07-21T14:34:09.571Z,1002.08
2023-07-21T14:37:18.950Z,1002.10
2023-07-21T14:40:26.227Z,1002.05
2023-07-21T14:43:33.923Z,1001.97
2023-07-21T14:46:43.426Z,1001.99
2023-07-21T14:49:51.240Z,1001.87
2023-07-21T14:52:59.502Z,1001.78
2023-07-21T14:56:08.740Z,1001.82
2023-07-21T14:59:16.186Z,1001.80
2023-07-21T15:02:23.638Z,1001.75
2023-07-21T15:05:32.883Z,1001.84
2023-07-21T15:08:40.287Z,1001.91
2023-07-21T15:11:48.029Z,1001.95
2023-07-21T15:14:57.124Z,1001.98
2023-07-21T15:18:04.999Z,1001.97
2023-07-21T15:21:12.573Z,1001.85
2023-07-21T15:24:19.913Z,1001.92
2023-07-21T15:27:29.487Z,1001.89
2023-07-21T15:30:38.109Z,1002.00
2023-07-21T15:33:46.015Z,1002.00
2023-07-21T15:36:54.355Z,1002.00
2023-07-21T15:40:02.410Z,1002.11
2023-07-21T15:43:10.049Z,1001.99
2023-07-21T15:46:19.906Z,1001.98
2023-07-21T15:49:38.254Z,1001.81
2023-07-21T15:52:33.984Z,1001.77
2023-07-21T15:55:41.997Z,1001.79
2023-07-21T15:58:51.948Z,1001.81
2023-07-21T16:01:59.887Z,1001.87
2023-07-21T16:05:07.339Z,1001.80
2023-07-21T16:08:16.553Z,1001.80
2023-07-21T16:11:24.386Z,1001.83
2023-07-21T16:14:32.045Z,1001.80
2023-07-21T16:17:40.864Z,1001.79
2023-07-21T16:20:48.920Z,1001.79
2023-07-21T16:23:56.143Z,1001.73
2023-07-21T16:27:04.814Z,1001.70
2023-07-21T16:30:12.235Z,1001.71
2023-07-21T16:33:19.156Z,1001.81
2023-07-21T16:36:26.800Z,1001.86
2023-07-21T16:39:35.989Z,1001.78
2023-07-21T16:42:42.833Z,1001.71
2023-07-21T16:45:50.419Z,1001.72
2023-07-21T16:48:59.421Z,1001.78
2023-07-21T16:52:06.687Z,1001.79
2023-07-21T16:55:14.825Z,1001.77
2023-07-21T16:58:25.709Z,1001.74
2023-07-21T17:01:34.814Z,1001.79
2023-07-21T17:04:41.925Z,1001.68
2023-07-21T17:07:51.881Z,1001.63
2023-07-21T17:10:59.135Z,1001.80
2023-07-21T17:14:06.899Z,1001.79
2023-07-21T17:17:14.096Z,1001.80
2023-07-21T17:20:23.201Z,1001.78
2023-07-21T17:23:30.781Z,1001.79
2023-07-21T17:26:38.559Z,1001.84
2023-07-21T17:29:46.867Z,1001.82
2023-07-21T17:32:54.991Z,1001.80
2023-07-21T17:36:02.157Z,1001.82
2023-07-21T17:39:10.957Z,1001.75
2023-07-21T17:42:18.537Z,1001.78
2023-07-21T17:45:26.126Z,1001.90
2023-07-21T17:48:33.662Z,1001.91
2023-07-21T17:51:41.958Z,1001.83
2023-07-21T17:54:50.232Z,1001.83
2023-07-21T17:57:57.400Z,1001.79
2023-07-21T18:01:06.258Z,1001.88
2023-07-21T18:04:13.946Z,1001.85
2023-07-21T18:07:21.438Z,1001.87
2023-07-21T18:10:30.424Z,1001.85
2023-07-21T18:13:37.669Z,1001.83
2023-07-21T18:16:44.988Z,1001.80
2023-07-21T18:19:53.731Z,1001.79
2023-07-21T18:23:01.773Z,1001.90
2023-07-21T18:26:08.641Z,1001.96
2023-07-21T18:29:16.173Z,1001.95
2023-07-21T18:32:24.758Z,1001.97
2023-07-21T18:35:32.914Z,1001.95
2023-07-21T18:38:39.792Z,1002.00
2023-07-21T18:41:49.090Z,1002.09
2023-07-21T18:44:56.041Z,1002.14
2023-07-21T18:48:03.390Z,1002.19
2023-07-21T18:51:11.875Z,1002.27
2023-07-21T18:54:19.596Z,1002.31
2023-07-21T18:57:27.249Z,1002.30
2023-07-21T19:00:35.831Z,1002.31
2023-07-21T19:03:42.936Z,1002.31
2023-07-21T19:06:50.126Z,1002.31
2023-07-21T19:09:59.402Z,1002.40
2023-07-21T19:13:07.895Z,1002.42
2023-07-21T19:16:15.043Z,1002.48
2023-07-21T19:19:22.933Z,1002.52
2023-07-21T19:22:31.881Z,1002.58
2023-07-21T19:25:38.687Z,1002.71
2023-07-21T19:28:46.803Z,1002.83
2023-07-21T19:31:56.064Z,1002.83
2023-07-21T19:35:41.632Z,1002.90
2023-07-21T19:38:49.025Z,1002.93
2023-07-21T19:41:57.255Z,1002.97
2023-07-21T19:45:04.328Z,1002.98
2023-07-21T19:48:11.691Z,1003.04
2023-07-21T19:51:18.927Z,1003.07
2023-07-21T19:54:27.496Z,1003.10
2023-07-21T19:57:35.064Z,1003.21
2023-07-21T20:00:42.157Z,1003.24
2023-07-21T20:03:51.220Z,1003.23
2023-07-21T20:06:58.510Z,1003.25
2023-07-21T20:10:05.830Z,1003.35
2023-07-21T20:10:48.908Z,1003.38
2023-07-21T20:13:58.380Z,1003.37
2023-07-21T20:17:05.877Z,1003.38
2023-07-21T20:20:13.126Z,1003.47
2023-07-21T20:23:21.716Z,1003.55
2023-07-21T20:26:29.653Z,1003.56
2023-07-21T20:29:37.796Z,1003.57
2023-07-21T20:32:45.959Z,1003.60
2023-07-21T20:35:53.528Z,1003.69
2023-07-21T20:39:01.058Z,1003.74
2023-07-21T20:42:08.113Z,1003.77
2023-07-21T20:45:16.672Z,1003.86
2023-07-21T20:48:24.449Z,1003.87
2023-07-21T20:51:31.871Z,1003.92
2023-07-21T20:54:40.482Z,1003.99
2023-07-21T20:57:48.745Z,1004.04
2023-07-21T21:00:56.298Z,1004.02
2023-07-21T21:04:05.148Z,1004.07
2023-07-21T21:07:12.973Z,1004.06
2023-07-21T21:10:21.213Z,1004.16
2023-07-21T21:13:29.364Z,1004.26
2023-07-21T21:16:30.394Z,1004.35
2023-07-21T21:19:38.107Z,1004.30
2023-07-21T21:22:45.166Z,1004.17
2023-07-21T21:25:53.941Z,1004.29
2023-07-21T21:29:01.676Z,1004.33
2023-07-21T21:32:08.411Z,1004.36
2023-07-21T21:35:17.499Z,1004.33
2023-07-21T21:38:24.231Z,1004.36
2023-07-21T21:41:31.382Z,1004.46
2023-07-21T21:44:39.945Z,1004.54
2023-07-21T21:47:47.380Z,1004.48
2023-07-21T21:50:54.033Z,1004.50
2023-07-21T21:54:02.523Z,1004.53
2023-07-21T21:57:11.460Z,1004.52
2023-07-21T22:00:18.472Z,1004.50
2023-07-21T22:03:27.943Z,1004.46
2023-07-21T22:06:36.890Z,1004.50
2023-07-21T22:09:44.030Z,1004.45
2023-07-21T22:12:51.616Z,1004.44
2023-07-21T22:16:00.569Z,1004.43
2023-07-21T22:19:07.232Z,1004.46
2023-07-21T22:22:14.818Z,1004.50
2023-07-21T22:25:23.826Z,1004.45
2023-07-21T22:28:30.686Z,1004.49
2023-07-21T22:31:37.790Z,1004.53
2023-07-21T22:34:44.955Z,1004.55
2023-07-21T22:37:53.609Z,1004.54
2023-07-21T22:41:01.907Z,1004.58
2023-07-21T22:44:09.686Z,1004.50
2023-07-21T22:47:18.677Z,1004.56
2023-07-21T22:50:25.827Z,1004.63
2023-07-21T22:53:33.333Z,1004.62
2023-07-21T22:56:42.226Z,1004.65
2023-07-21T22:59:50.154Z,1004.67
2023-07-21T23:02:57.290Z,1004.74
2023-07-21T23:06:04.304Z,1004.74
2023-07-21T23:09:13.492Z,1004.82
2023-07-21T23:12:20.916Z,1004.78
2023-07-21T23:15:27.986Z,1004.71
2023-07-21T23:18:36.591Z,1004.73
2023-07-21T23:21:44.120Z,1004.78
2023-07-21T23:24:51.179Z,1004.72
2023-07-21T23:28:00.098Z,1004.79
2023-07-21T23:31:07.705Z,1004.73
2023-07-21T23:34:14.393Z,1004.81
2023-07-21T23:37:23.278Z,1004.77
2023-07-21T23:40:30.407Z,1004.76
2023-07-21T23:43:37.552Z,1004.79
2023-07-21T23:46:45.196Z,1004.77
2023-07-21T23:49:54.956Z,1004.76
2023-07-21T23:53:02.139Z,1004.81
2023-07-21T23:56:09.481Z,1004.83
2023-07-21T23:59:18.488Z,1004.82
